Time;durP1;ratioP1;P1;durP2;ratioP2;P2;SDS_P1;SDS_P2;PMS_P1;PMS_P2;Temp;Humidity;BMP_temperature;BMP_pressure;BME280_temperature;BME280_humidity;BME280_pressure;Samples;Min_cycle;Max_cycle;Signal;HPM_P1;HPM_P2
2021/12/07 00:00:50;;;;;;;2.25;1.30;;;;;;;-13.19;91.68;102277.47;5074251;28;19968;-61
2021/12/07 00:03:17;;;;;;;1.10;1.10;;;;;;;-13.24;90.59;102276.31;5074216;28;20072;-62
2021/12/07 00:05:45;;;;;;;1.75;1.20;;;;;;;-13.13;90.92;102272.00;5073934;28;20145;-62
2021/12/07 00:08:12;;;;;;;1.00;1.00;;;;;;;-13.13;89.96;102272.84;5074183;28;20066;-61
2021/12/07 00:10:41;;;;;;;3.70;1.10;;;;;;;-13.19;91.10;102274.97;5074677;28;20072;-62
2021/12/07 00:13:09;;;;;;;1.40;1.25;;;;;;;-13.21;90.50;102272.34;5074436;28;20551;-61
2021/12/07 00:15:36;;;;;;;1.55;1.40;;;;;;;-13.12;90.09;102271.25;5074792;28;20049;-61
2021/12/07 00:18:03;;;;;;;;;;;;;;;-13.11;89.72;102272.97;5074250;28;20449;-62
2021/12/07 00:20:30;;;;;;;;;;;;;;;-13.11;90.47;102261.31;5074455;28;19959;-61
2021/12/07 00:22:58;;;;;;;;;;;;;;;-13.15;90.24;102261.91;5074138;28;20014;-61
2021/12/07 00:25:25;;;;;;;1.15;1.15;;;;;;;-13.17;89.81;102260.91;5073938;28;19966;-61
2021/12/07 00:27:54;;;;;;;1.20;1.20;;;;;;;-13.30;90.58;102255.91;5073999;28;20494;-62
2021/12/07 00:30:26;;;;;;;7.43;1.27;;;;;;;-13.27;89.82;102251.09;5073574;28;20398;-62
2021/12/07 00:33:08;;;;;;;2.45;1.42;;;;;;;-13.29;90.38;102255.13;5074269;28;20072;-61
2021/12/07 00:35:35;;;;;;;1.13;1.02;;;;;;;-13.31;90.87;102252.53;5073453;28;20049;-61
2021/12/07 00:38:06;;;;;;;1.55;1.20;;;;;;;-13.24;90.75;102249.63;5073544;28;20155;-62
2021/12/07 00:40:33;;;;;;;1.20;1.20;;;;;;;-13.29;90.62;102252.63;5073518;28;20068;-61
2021/12/07 00:43:01;;;;;;;;;;;;;;;-13.32;90.19;102245.78;5073723;28;20451;-62
2021/12/07 00:45:32;;;;;;;1.38;1.27;;;;;;;-13.34;89.77;102239.81;5073536;28;19959;-62
2021/12/07 00:47:59;;;;;;;1.38;1.20;;;;;;;-13.18;90.69;102245.03;5073575;28;20052;-61
2021/12/07 00:50:28;;;;;;;1.20;1.15;;;;;;;-13.13;90.38;102232.78;5073277;28;20139;-62
2021/12/07 00:52:56;;;;;;;1.55;1.45;;;;;;;-13.07;91.21;102243.22;5073242;28;20545;-61
2021/12/07 00:55:27;;;;;;;1.67;1.08;;;;;;;-13.04;90.74;102235.88;5073332;28;20071;-63
2021/12/07 00:57:57;;;;;;;1.95;1.20;;;;;;;-13.06;91.42;102234.06;5073293;28;20075;-61
2021/12/07 01:00:29;;;;;;;1.67;1.17;;;;;;;-13.14;90.55;102237.72;5073041;28;20064;-61
2021/12/07 01:02:56;;;;;;;1.23;1.13;;;;;;;-13.08;90.59;102233.94;5072812;28;20136;-62
2021/12/07 01:05:28;;;;;;;6.07;1.45;;;;;;;-13.12;90.67;102226.16;5073148;28;20498;-63
2021/12/07 01:08:13;;;;;;;2.03;1.30;;;;;;;-13.09;90.44;102232.22;5072780;28;20045;-61
2021/12/07 01:24:42;;;;;;;4.13;1.20;;;;;;;-13.22;91.68;102222.19;5039181;28;20044;-63
2021/12/07 01:27:10;;;;;;;1.63;1.50;;;;;;;-13.19;91.07;102213.22;5072838;28;20076;-62
2021/12/07 01:29:39;;;;;;;1.67;1.40;;;;;;;-13.12;91.10;102221.16;5073402;28;20048;-62
2021/12/07 01:32:18;;;;;;;1.52;1.13;;;;;;;-13.09;91.02;102224.69;5073498;28;20053;-61
2021/12/07 01:35:21;;;;;;;1.17;1.08;;;;;;;-13.12;91.35;102221.16;5073300;28;20426;-61
2021/12/07 01:38:02;;;;;;;1.55;1.30;;;;;;;-13.15;91.57;102221.81;5073686;28;20041;-62
2021/12/07 01:40:44;;;;;;;1.08;1.08;;;;;;;-13.17;91.08;102225.84;5073428;28;20049;-61
2021/12/07 01:46:22;;;;;;;3.60;1.27;;;;;;;-13.12;91.35;102222.00;5047766;28;20053;-61
2021/12/07 01:52:04;;;;;;;1.38;1.27;;;;;;;-13.18;90.30;102216.59;5073126;28;20549;-62
2021/12/07 02:00:02;;;;;;;0.98;0.98;;;;;;;-13.14;91.26;102226.03;5072526;28;20062;-61
2021/12/07 02:02:31;;;;;;;1.92;1.20;;;;;;;-13.27;91.58;102218.53;5072786;28;20113;-63
2021/12/07 02:04:59;;;;;;;1.10;1.10;;;;;;;-13.23;91.02;102228.84;5072598;28;20131;-62
2021/12/07 02:07:26;;;;;;;3.83;1.30;;;;;;;-13.19;91.43;102223.22;5072754;28;20691;-61
2021/12/07 02:09:57;;;;;;;1.00;1.00;;;;;;;-13.20;91.33;102224.00;5072615;28;20048;-61
2021/12/07 02:12:25;;;;;;;1.17;1.15;;;;;;;-13.15;91.58;102224.31;5072514;28;20069;-62
2021/12/07 02:14:53;;;;;;;1.30;1.20;;;;;;;-13.10;91.19;102222.97;5072370;28;20105;-62
2021/12/07 02:17:24;;;;;;;;;;;;;;;-13.03;91.70;102217.56;5072659;28;20056;-62
2021/12/07 02:19:51;;;;;;;5.35;1.67;;;;;;;-13.07;91.04;102213.16;5072799;28;19924;-62
2021/12/07 02:22:20;;;;;;;1.48;1.38;;;;;;;-13.10;91.25;102212.97;5072543;28;20044;-63
2021/12/07 02:24:47;;;;;;;1.33;1.20;;;;;;;-13.16;91.95;102212.53;5072427;28;20044;-62
2021/12/07 02:27:15;;;;;;;1.52;1.20;;;;;;;-13.09;90.89;102204.66;5073136;28;20051;-61
2021/12/07 02:29:42;;;;;;;6.05;1.35;;;;;;;-12.94;90.97;102203.13;5076497;28;20064;-63
2021/12/07 02:32:09;;;;;;;3.13;1.05;;;;;;;-12.95;91.93;102205.53;5076301;28;20090;-61
2021/12/07 02:34:42;;;;;;;1.20;1.20;;;;;;;-13.02;91.92;102193.38;5075825;28;20051;-62
2021/12/07 02:37:09;;;;;;;1.00;1.00;;;;;;;-12.94;90.77;102194.75;5075497;28;20139;-62
2021/12/07 02:39:44;;;;;;;1.02;0.98;;;;;;;-12.94;90.80;102187.22;5075666;28;20054;-62
2021/12/07 02:42:11;;;;;;;1.10;1.05;;;;;;;-12.95;90.88;102188.84;5075655;28;20060;-62
2021/12/07 02:44:38;;;;;;;1.40;1.30;;;;;;;-13.02;91.67;102185.84;5075987;28;20098;-62
2021/12/07 02:47:05;;;;;;;;;;;;;;;-13.04;91.39;102190.78;5076148;28;20072;-62
2021/12/07 02:49:32;;;;;;;0.98;0.98;;;;;;;-13.12;92.23;102191.94;5075825;28;20267;-62
2021/12/07 02:51:59;;;;;;;1.05;1.05;;;;;;;-13.01;91.23;102190.97;5075737;28;20049;-61
2021/12/07 02:54:27;;;;;;;1.00;1.00;;;;;;;-12.84;91.21;102188.66;5075172;28;20048;-61
2021/12/07 02:56:56;;;;;;;1.02;1.02;;;;;;;-12.91;90.57;102186.56;5075622;28;20045;-61
2021/12/07 02:59:24;;;;;;;1.75;1.60;;;;;;;-13.11;91.31;102188.66;5075273;28;20064;-61
2021/12/07 03:01:58;;;;;;;1.00;1.00;;;;;;;-13.18;92.15;102179.91;5075136;28;20041;-62
2021/12/07 03:04:31;;;;;;;1.10;1.00;;;;;;;-13.11;91.25;102177.78;5074630;28;20084;-60
2021/12/07 03:07:06;;;;;;;1.98;1.23;;;;;;;-13.13;90.87;102181.81;5074857;28;20063;-61
2021/12/07 03:26:11;;;;;;;1.10;1.00;;;;;;;-13.11;91.02;102172.75;5074940;28;20414;-61
2021/12/07 03:28:42;;;;;;;3.42;1.25;;;;;;;-13.22;90.97;102172.09;5074521;28;20099;-61
2021/12/07 03:31:10;;;;;;;1.00;1.00;;;;;;;-13.22;90.14;102179.59;5074613;28;20049;-61
2021/12/07 03:33:38;;;;;;;1.15;1.15;;;;;;;-13.11;90.51;102173.63;5075395;28;20080;-61
2021/12/07 03:36:07;;;;;;;1.17;1.17;;;;;;;-13.19;90.26;102172.28;5074755;28;20040;-61
2021/12/07 03:38:34;;;;;;;1.10;1.10;;;;;;;-13.37;90.70;102174.50;5074230;28;20130;-61
2021/12/07 03:41:01;;;;;;;1.17;1.15;;;;;;;-13.40;90.21;102172.66;5074379;28;20041;-60
2021/12/07 03:43:28;;;;;;;;;;;;;;;-13.33;91.03;102171.44;5074858;28;20053;-61
2021/12/07 03:45:57;;;;;;;1.02;1.02;;;;;;;-13.50;90.63;102166.97;5074114;28;20387;-62
2021/12/07 03:48:24;;;;;;;1.42;1.33;;;;;;;-13.53;90.71;102170.13;5074429;28;20189;-62
2021/12/07 03:50:51;;;;;;;1.10;1.10;;;;;;;-13.58;90.69;102163.97;5074786;28;20068;-62
2021/12/07 03:53:18;;;;;;;2.28;1.35;;;;;;;-13.56;90.74;102169.94;5074072;28;20045;-61
2021/12/07 03:55:46;;;;;;;5.47;1.40;;;;;;;-13.65;90.40;102171.84;5074374;28;20067;-62
2021/12/07 03:58:13;;;;;;;1.50;1.40;;;;;;;-13.65;90.96;102172.69;5074023;28;20131;-61
2021/12/07 04:00:43;;;;;;;1.10;1.10;;;;;;;-13.66;90.33;102170.97;5074294;28;20068;-61
2021/12/07 04:03:14;;;;;;;2.47;1.20;;;;;;;-13.70;90.65;102160.66;5074159;28;20132;-62
2021/12/07 04:05:47;;;;;;;1.38;1.25;;;;;;;-13.72;91.15;102154.66;5074241;28;20044;-61
2021/12/07 04:08:16;;;;;;;4.50;1.35;;;;;;;-13.78;90.74;102156.78;5073878;28;20048;-61
2021/12/07 04:10:45;;;;;;;1.73;1.20;;;;;;;-13.88;90.34;102156.16;5073929;28;20075;-61
2021/12/07 04:13:12;;;;;;;1.35;1.25;;;;;;;-13.86;90.06;102147.13;5074138;28;20044;-61
2021/12/07 04:15:40;;;;;;;2.03;1.60;;;;;;;-14.06;90.74;102155.81;5073879;28;20051;-61
2021/12/07 04:18:07;;;;;;;1.40;1.30;;;;;;;-14.02;91.20;102146.00;5073721;28;20135;-61
2021/12/07 04:20:36;;;;;;;0.90;0.90;;;;;;;-13.99;90.55;102148.72;5073909;28;20076;-61
2021/12/07 04:23:04;;;;;;;2.50;1.48;;;;;;;-14.22;90.40;102142.19;5073594;28;20449;-62
2021/12/07 04:25:31;;;;;;;2.45;1.33;;;;;;;-14.16;90.82;102145.09;5073480;28;20048;-62
2021/12/07 04:27:58;;;;;;;;;;;;;;;-14.26;91.56;102131.94;5073882;28;20499;-61
2021/12/07 04:30:27;;;;;;;2.75;1.77;;;;;;;-14.35;90.75;102141.34;5073763;28;20018;-61
2021/12/07 04:32:55;;;;;;;1.40;1.20;;;;;;;-14.35;91.15;102146.34;5073885;28;20105;-61
2021/12/07 04:35:22;;;;;;;1.60;1.50;;;;;;;-14.39;91.15;102136.03;5073537;28;20049;-62
2021/12/07 04:37:51;;;;;;;1.25;1.15;;;;;;;-14.44;90.02;102135.72;5073530;28;20052;-61
2021/12/07 04:40:22;;;;;;;1.30;1.20;;;;;;;-14.49;90.63;102137.03;5073670;28;20052;-61
2021/12/07 04:42:49;;;;;;;4.38;1.40;;;;;;;-14.44;91.39;102138.22;5073299;28;20048;-61
2021/12/07 04:45:27;;;;;;;1.40;1.30;;;;;;;-14.52;90.89;102140.19;5073152;28;20441;-62
2021/12/07 04:48:09;;;;;;;1.30;1.20;;;;;;;-14.59;90.74;102139.69;5073170;28;20487;-61
2021/12/07 04:58:53;;;;;;;2.03;1.52;;;;;;;-14.58;91.54;102129.81;5073106;28;20257;-61
2021/12/07 05:01:20;;;;;;;;;;;;;;;-14.48;90.61;102132.16;5073319;28;20044;-61
2021/12/07 05:03:49;;;;;;;0.90;0.90;;;;;;;-14.45;91.27;102131.50;5072964;28;19920;-61
2021/12/07 05:06:18;;;;;;;1.00;1.00;;;;;;;-14.43;91.21;102127.47;5073060;28;20048;-62
2021/12/07 05:08:54;;;;;;;1.05;1.05;;;;;;;-14.27;90.64;102130.22;5072907;28;20044;-62
2021/12/07 05:11:32;;;;;;;1.10;1.10;;;;;;;-14.46;91.47;102127.25;5072831;28;20056;-61
2021/12/07 05:14:14;;;;;;;2.05;1.38;;;;;;;-14.46;91.22;102127.25;5072532;28;20051;-60
2021/12/07 05:16:56;;;;;;;0.98;0.98;;;;;;;-14.38;90.33;102118.66;5073079;28;20051;-60
2021/12/07 05:25:20;;;;;;;1.30;1.20;;;;;;;-14.64;89.64;102131.00;5072610;28;20415;-61
2021/12/07 05:38:50;;;;;;;1.73;1.10;;;;;;;-14.71;89.89;102110.63;5072169;28;20102;-61
2021/12/07 05:41:19;;;;;;;1.45;1.35;;;;;;;-14.70;90.08;102116.47;5072672;28;20141;-62
2021/12/07 05:43:47;;;;;;;1.42;1.33;;;;;;;-14.68;90.23;102112.47;5072076;28;20139;-62
2021/12/07 05:46:14;;;;;;;1.50;1.35;;;;;;;-14.73;89.58;102108.78;5072338;28;20075;-61
2021/12/07 05:48:42;;;;;;;1.05;1.05;;;;;;;-14.77;89.79;102110.22;5072187;28;20048;-60
2021/12/07 05:51:10;;;;;;;8.27;3.42;;;;;;;-14.76;90.21;102106.06;5072092;28;20059;-61
2021/12/07 05:53:37;;;;;;;1.45;1.35;;;;;;;-14.74;89.58;102102.06;5071624;28;20143;-60
2021/12/07 05:56:05;;;;;;;1.88;1.58;;;;;;;-14.80;89.54;102099.09;5071953;28;20072;-60
2021/12/07 05:58:33;;;;;;;1.40;1.30;;;;;;;-14.96;89.77;102097.19;5071956;28;20051;-61
2021/12/07 06:01:00;;;;;;;3.15;1.88;;;;;;;-15.15;90.39;102097.53;5072087;28;20087;-61
2021/12/07 06:03:28;;;;;;;4.20;1.70;;;;;;;-15.06;89.85;102093.19;5071600;28;20131;-61
2021/12/07 06:05:56;;;;;;;1.45;1.35;;;;;;;-15.04;90.37;102098.28;5071997;28;20127;-61
2021/12/07 06:08:24;;;;;;;1.58;1.40;;;;;;;-15.00;89.91;102097.72;5071754;28;20063;-63
2021/12/07 06:10:51;;;;;;;5.22;1.40;;;;;;;-15.04;89.75;102093.28;5072178;28;20384;-60
2021/12/07 06:13:18;;;;;;;1.20;1.10;;;;;;;-15.24;89.92;102092.75;5071893;28;20161;-60
2021/12/07 06:15:47;;;;;;;1.17;1.17;;;;;;;-15.12;90.09;102087.75;5071773;28;20144;-62
2021/12/07 06:18:14;;;;;;;1.65;1.48;;;;;;;-15.29;90.09;102091.56;5071581;28;20068;-62
2021/12/07 06:20:42;;;;;;;1.30;1.20;;;;;;;-15.33;90.36;102094.63;5071647;28;20380;-62
2021/12/07 06:23:10;;;;;;;2.22;1.58;;;;;;;-15.29;91.05;102095.69;5071745;28;20045;-63
2021/12/07 06:25:37;;;;;;;1.67;1.55;;;;;;;-15.21;90.69;102097.09;5071797;28;20048;-62
2021/12/07 06:28:05;;;;;;;2.63;1.70;;;;;;;-15.26;90.61;102091.78;5071888;28;20140;-62
2021/12/07 06:30:32;;;;;;;1.98;1.30;;;;;;;-15.17;90.75;102094.06;5071674;28;20135;-61
2021/12/07 06:33:00;;;;;;;2.30;1.52;;;;;;;-15.06;90.25;102079.81;5071372;28;20469;-62
2021/12/07 06:35:27;;;;;;;1.67;1.52;;;;;;;-15.08;90.52;102086.34;5071440;28;20494;-61
2021/12/07 06:37:54;;;;;;;1.25;1.20;;;;;;;-15.06;90.10;102082.31;5071626;28;20468;-62
2021/12/07 06:40:21;;;;;;;1.83;1.10;;;;;;;-14.98;89.92;102079.59;5071593;28;20565;-61
2021/12/07 06:42:48;;;;;;;;;;;;;;;-15.11;89.11;102077.00;5071984;28;20048;-62
2021/12/07 06:45:15;;;;;;;1.05;1.05;;;;;;;-15.25;90.42;102078.53;5071546;28;20022;-62
2021/12/07 06:47:42;;;;;;;1.10;1.10;;;;;;;-15.42;90.14;102082.34;5071258;28;20478;-61
2021/12/07 06:50:13;;;;;;;1.63;1.52;;;;;;;-15.65;90.24;102085.69;5071776;28;20040;-60
2021/12/07 06:52:40;;;;;;;2.17;1.20;;;;;;;-15.63;89.70;102079.19;5087202;28;20131;-61
2021/12/07 06:55:08;;;;;;;3.40;1.85;;;;;;;-15.66;89.54;102078.97;5090062;28;20062;-61
2021/12/07 06:57:35;;;;;;;1.50;1.40;;;;;;;-15.70;90.00;102083.66;5089840;28;20050;-60
2021/12/07 07:00:04;;;;;;;2.03;1.65;;;;;;;-15.64;89.64;102079.94;5090799;28;20044;-62
2021/12/07 07:02:31;;;;;;;1.00;1.00;;;;;;;-15.55;88.95;102081.38;5090883;28;20076;-61
2021/12/07 07:04:58;;;;;;;1.33;1.30;;;;;;;-15.61;87.21;102084.28;5089921;28;20050;-60
2021/12/07 07:07:26;;;;;;;1.88;1.50;;;;;;;-15.92;86.99;102081.25;5089688;28;20139;-60
2021/12/07 07:09:53;;;;;;;1.27;1.20;;;;;;;-15.89;86.34;102087.31;5090344;28;20046;-61
2021/12/07 07:12:21;;;;;;;2.53;1.80;;;;;;;-16.08;87.58;102082.63;5090936;28;20139;-61
2021/12/07 07:14:48;;;;;;;6.53;2.17;;;;;;;-16.47;87.12;102081.38;5091089;28;20135;-60
2021/12/07 07:17:15;;;;;;;1.80;1.60;;;;;;;-16.40;87.97;102074.38;5093713;28;20458;-61
2021/12/07 07:19:42;;;;;;;0.90;0.90;;;;;;;-16.21;89.44;102084.06;5094343;28;20447;-60
2021/12/07 07:22:09;;;;;;;1.40;1.40;;;;;;;-16.29;88.64;102088.50;5094288;28;20148;-61
2021/12/07 07:24:38;;;;;;;1.30;1.20;;;;;;;-16.35;88.84;102083.91;5093378;28;20078;-61
2021/12/07 07:27:06;;;;;;;1.42;1.33;;;;;;;-16.33;89.87;102084.91;5093986;28;20094;-61
2021/12/07 07:29:33;;;;;;;1.15;1.15;;;;;;;-16.25;91.02;102081.34;5094253;28;20079;-61
2021/12/07 07:32:00;;;;;;;1.55;1.45;;;;;;;-16.20;91.46;102079.22;5093746;28;20139;-62
2021/12/07 07:34:27;;;;;;;1.77;1.67;;;;;;;-16.27;91.03;102082.88;5092553;28;20123;-61
2021/12/07 07:36:53;;;;;;;;;;;;;;;-16.11;90.94;102093.97;5094241;28;20051;-61
2021/12/07 07:39:20;;;;;;;1.50;1.40;;;;;;;-16.17;91.21;102091.91;5094462;28;19923;-61
2021/12/07 07:41:49;;;;;;;1.40;1.30;;;;;;;-16.33;90.29;102092.38;5092910;28;20508;-61
2021/12/07 07:44:17;;;;;;;3.83;1.33;;;;;;;-16.40;90.54;102085.19;5092804;28;20079;-61
2021/12/07 07:46:44;;;;;;;1.38;1.27;;;;;;;-16.30;91.33;102087.63;5093670;28;20138;-61
2021/12/07 07:49:11;;;;;;;2.38;2.17;;;;;;;-16.15;91.50;102092.88;5094051;28;20143;-63
2021/12/07 07:51:38;;;;;;;1.77;1.67;;;;;;;-16.03;90.89;102088.81;5092592;28;20590;-62
2021/12/07 07:54:06;;;;;;;1.67;1.55;;;;;;;-15.76;89.70;102083.22;5093344;28;20135;-61
2021/12/07 07:56:34;;;;;;;1.20;1.20;;;;;;;-15.69;89.59;102078.78;5093545;28;20058;-61
2021/12/07 07:59:02;;;;;;;2.50;2.30;;;;;;;-15.75;89.52;102082.44;5093428;28;20060;-61
2021/12/07 08:01:31;;;;;;;1.85;1.23;;;;;;;-15.72;89.63;102076.06;5093164;28;20135;-62
2021/12/07 08:03:59;;;;;;;1.70;1.60;;;;;;;-15.77;90.59;102076.47;5093235;28;20089;-61
2021/12/07 08:06:27;;;;;;;1.50;1.25;;;;;;;-15.49;89.94;102074.31;5093656;28;20135;-63
2021/12/07 08:08:54;;;;;;;1.35;1.25;;;;;;;-15.54;89.37;102075.59;5092610;28;20060;-61
2021/12/07 08:11:20;;;;;;;1.42;1.33;;;;;;;-15.51;88.60;102080.81;5092468;28;20520;-61
2021/12/07 08:13:47;;;;;;;1.40;1.30;;;;;;;-15.59;89.28;102080.25;5093187;28;20616;-59
2021/12/07 08:16:16;;;;;;;1.58;1.48;;;;;;;-15.65;89.43;102082.31;5093748;28;20040;-61
2021/12/07 08:18:44;;;;;;;1.65;1.55;;;;;;;-15.68;89.14;102074.63;5090301;28;20047;-61
2021/12/07 08:21:11;;;;;;;1.55;1.45;;;;;;;-15.62;88.81;102078.41;5084623;28;20059;-61
2021/12/07 08:23:39;;;;;;;2.05;1.88;;;;;;;-15.68;89.29;102074.63;5092313;28;20109;-61
2021/12/07 08:26:08;;;;;;;1.60;1.50;;;;;;;-15.85;89.80;102073.44;5092314;28;20051;-60
2021/12/07 08:28:35;;;;;;;1.50;1.38;;;;;;;-15.83;88.73;102071.91;5091706;28;20059;-61
2021/12/07 08:31:03;;;;;;;1.70;1.58;;;;;;;-15.63;88.58;102066.72;5092248;28;20126;-62
2021/12/07 08:33:32;;;;;;;1.65;1.55;;;;;;;-15.41;88.15;102068.22;5093160;28;20040;-61
2021/12/07 08:35:59;;;;;;;2.00;1.80;;;;;;;-15.61;88.86;102072.69;5092015;28;20044;-61
2021/12/07 08:38:27;;;;;;;2.97;1.40;;;;;;;-15.88;89.61;102069.09;5092142;28;20048;-62
2021/12/07 08:40:54;;;;;;;1.63;1.40;;;;;;;-15.82;88.28;102069.56;5092810;28;20486;-62
2021/12/07 08:43:21;;;;;;;;;;;;;;;-15.99;88.18;102062.47;5093658;28;20051;-61
2021/12/07 08:45:49;;;;;;;2.55;1.58;;;;;;;-16.08;88.58;102062.69;5091299;28;20006;-61
2021/12/07 08:48:16;;;;;;;2.50;2.00;;;;;;;-16.06;88.98;102057.78;5091545;28;20044;-61
2021/12/07 08:50:46;;;;;;;2.45;1.95;;;;;;;-16.15;88.67;102054.63;5092734;28;20122;-61
2021/12/07 08:53:15;;;;;;;1.98;1.77;;;;;;;-16.09;89.41;102057.56;5092392;28;20512;-61
2021/12/07 09:01:26;;;;;;;1.52;1.42;;;;;;;-15.74;89.03;102054.28;5030679;28;20049;-62
2021/12/07 09:03:55;;;;;;;1.55;1.45;;;;;;;-15.81;88.43;102056.31;5076637;28;20094;-62
2021/12/07 09:06:25;;;;;;;2.30;2.10;;;;;;;-15.70;88.40;102047.09;5091813;28;20054;-62
2021/12/07 09:08:52;;;;;;;1.52;1.42;;;;;;;-15.70;87.43;102043.75;5092001;28;20147;-62
2021/12/07 09:11:20;;;;;;;3.47;1.98;;;;;;;-15.78;88.29;102043.19;5091372;28;20125;-62
2021/12/07 09:13:48;;;;;;;8.73;1.90;;;;;;;-15.82;88.76;102044.59;5090989;28;20123;-63
2021/12/07 09:16:18;;;;;;;1.35;1.20;;;;;;;-15.85;88.38;102038.50;5092393;28;20090;-62
2021/12/07 09:18:46;;;;;;;2.38;1.73;;;;;;;-15.77;87.48;102039.06;5091956;28;20055;-62
2021/12/07 09:21:13;;;;;;;1.65;1.55;;;;;;;-15.72;86.69;102047.75;5091459;28;20078;-63
2021/12/07 09:23:42;;;;;;;1.98;1.50;;;;;;;-15.88;87.23;102044.16;5091659;28;20052;-64
2021/12/07 09:26:10;;;;;;;2.25;1.67;;;;;;;-15.97;86.54;102046.00;5092089;28;20082;-62
2021/12/07 09:28:38;;;;;;;2.50;2.20;;;;;;;-16.24;88.97;102042.34;5092841;28;20048;-62
2021/12/07 09:31:06;;;;;;;1.80;1.70;;;;;;;-16.21;88.05;102046.69;5090663;28;20097;-62
2021/12/07 09:33:33;;;;;;;2.90;1.73;;;;;;;-16.17;87.88;102038.69;5092502;28;20554;-62
2021/12/07 09:36:00;;;;;;;;;;;;;;;-16.28;88.46;102035.41;5094315;28;20143;-62
2021/12/07 09:38:27;;;;;;;1.50;1.40;;;;;;;-16.34;87.36;102042.41;5092390;28;19981;-62
2021/12/07 09:40:56;;;;;;;1.45;1.40;;;;;;;-16.39;87.13;102037.09;5091131;28;20054;-62
2021/12/07 09:43:23;;;;;;;1.63;1.52;;;;;;;-16.37;87.59;102034.72;5091940;28;20143;-62
2021/12/07 09:45:50;;;;;;;;;;;;;;;-16.37;88.28;102034.72;5093407;28;20051;-62
2021/12/07 09:48:17;;;;;;;1.20;1.20;;;;;;;-16.11;87.76;102032.50;5091365;28;20014;-62
2021/12/07 09:50:48;;;;;;;7.25;1.98;;;;;;;-16.15;87.71;102038.03;5090497;28;20044;-61
2021/12/07 09:53:16;;;;;;;2.45;1.67;;;;;;;-16.02;88.01;102035.69;5091190;28;20097;-61
2021/12/07 09:55:45;;;;;;;1.52;1.45;;;;;;;-15.95;87.42;102037.00;5091340;28;20046;-62
2021/12/07 09:58:16;;;;;;;1.40;1.30;;;;;;;-15.81;87.52;102028.00;5090169;28;20088;-62
2021/12/07 10:00:44;;;;;;;1.75;1.65;;;;;;;-15.93;87.76;102029.63;5090252;28;20131;-63
2021/12/07 10:03:12;;;;;;;2.53;2.33;;;;;;;-16.05;87.84;102027.13;5091166;28;20044;-62
2021/12/07 10:05:41;;;;;;;2.53;1.90;;;;;;;-15.97;88.74;102035.16;5090403;28;20035;-62
2021/12/07 10:08:09;;;;;;;1.60;1.50;;;;;;;-15.88;88.29;102034.16;5090514;28;20663;-63
2021/12/07 10:10:40;;;;;;;1.25;1.25;;;;;;;-15.69;87.83;102031.38;5091411;28;20512;-63
2021/12/07 10:13:10;;;;;;;1.00;1.00;;;;;;;-15.66;88.10;102029.06;5090831;28;20135;-63
2021/12/07 10:15:40;;;;;;;1.60;1.50;;;;;;;-15.75;87.45;102030.06;5089892;28;20131;-62
2021/12/07 10:18:09;;;;;;;1.30;1.20;;;;;;;-15.85;87.77;102026.03;5088679;28;20082;-64
2021/12/07 10:20:40;;;;;;;1.35;1.25;;;;;;;-15.94;88.45;102025.41;5091059;28;20055;-64
2021/12/07 10:23:26;;;;;;;1.40;1.30;;;;;;;-15.88;87.90;102023.34;5091914;28;20057;-63
2021/12/07 10:25:55;;;;;;;2.15;1.70;;;;;;;-15.81;87.96;102023.03;5089717;28;20052;-62
2021/12/07 10:28:28;;;;;;;1.42;1.35;;;;;;;-15.88;87.93;102025.81;5090705;28;20417;-61
2021/12/07 10:30:57;;;;;;;1.13;1.10;;;;;;;-15.96;87.52;102024.41;5090891;28;20040;-61
2021/12/07 10:33:33;;;;;;;1.23;1.13;;;;;;;-16.00;87.34;102022.44;5090068;28;20047;-63
2021/12/07 10:36:10;;;;;;;1.92;1.25;;;;;;;-16.02;87.13;102017.38;5090383;28;20040;-63
2021/12/07 10:38:38;;;;;;;1.10;1.10;;;;;;;-15.81;88.12;102011.41;5090641;28;20052;-64
2021/12/07 10:41:08;;;;;;;1.00;1.00;;;;;;;-15.63;86.74;102004.34;5091880;28;20044;-63
2021/12/07 10:43:47;;;;;;;1.70;1.60;;;;;;;-15.55;88.00;102004.00;5089782;28;20048;-64
2021/12/07 10:46:33;;;;;;;1.02;1.02;;;;;;;-15.44;87.26;102003.13;5090878;28;20045;-64
2021/12/07 10:49:25;;;;;;;1.92;1.23;;;;;;;-15.54;87.17;102001.59;5092771;28;20044;-61
2021/12/07 10:52:27;;;;;;;1.60;1.50;;;;;;;-15.44;87.20;101998.13;5094385;28;20527;-62
2021/12/07 10:55:11;;;;;;;1.00;1.00;;;;;;;-15.49;86.98;102004.44;5065188;28;20048;-60
2021/12/07 10:57:40;;;;;;;1.30;1.30;;;;;;;-15.47;87.50;102000.41;5093157;28;20048;-61
2021/12/07 11:00:16;;;;;;;1.20;1.20;;;;;;;-15.53;87.67;102002.50;5094604;28;20141;-62
2021/12/07 11:02:47;;;;;;;1.42;1.33;;;;;;;-15.60;87.13;101992.06;5093634;28;20040;-62
2021/12/07 11:05:20;;;;;;;1.95;1.85;;;;;;;-15.62;87.12;101986.09;5094133;28;20048;-61
2021/12/07 11:07:47;;;;;;;1.35;1.25;;;;;;;-15.70;87.19;101994.72;5095205;28;20048;-61
2021/12/07 11:10:18;;;;;;;1.10;1.10;;;;;;;-15.68;88.34;101997.28;5093509;28;20480;-62
2021/12/07 11:12:51;;;;;;;1.40;1.30;;;;;;;-15.78;88.10;101997.44;5093527;28;20055;-62
2021/12/07 11:15:24;;;;;;;1.50;1.42;;;;;;;-15.64;87.16;101995.13;5094480;28;20040;-62
2021/12/07 11:17:55;;;;;;;1.48;1.38;;;;;;;-15.51;87.28;101990.97;5094685;28;20405;-61
2021/12/07 11:20:23;;;;;;;1.20;1.20;;;;;;;-15.47;87.20;101990.44;5093482;28;20135;-60
2021/12/07 11:22:54;;;;;;;1.30;1.25;;;;;;;-15.62;87.06;101983.59;5093829;28;20131;-61
2021/12/07 11:25:53;;;;;;;1.65;1.55;;;;;;;-15.56;87.07;101978.19;5093387;28;20109;-62
2021/12/07 11:31:17;;;;;;;1.55;1.45;;;;;;;-15.50;87.67;101978.63;5094976;28;20104;-63
2021/12/07 11:33:46;;;;;;;1.58;1.38;;;;;;;-15.67;88.26;101972.44;5094637;28;20075;-63
2021/12/07 11:36:19;;;;;;;1.20;1.20;;;;;;;-15.70;87.14;101979.75;5095138;28;20051;-62
2021/12/07 11:38:46;;;;;;;1.75;1.33;;;;;;;-15.67;87.36;101971.56;5091871;28;20131;-63
2021/12/07 11:41:21;;;;;;;1.23;1.20;;;;;;;-15.77;86.79;101979.19;5093767;28;20117;-62
2021/12/07 11:43:58;;;;;;;1.80;1.70;;;;;;;-15.95;88.58;101978.75;5092462;28;20048;-62
2021/12/07 11:46:28;;;;;;;2.90;1.95;;;;;;;-16.11;88.61;101980.16;5092970;28;20052;-62
2021/12/07 11:49:13;;;;;;;1.75;1.65;;;;;;;-16.22;88.25;101972.69;5093871;28;20048;-61
2021/12/07 11:51:42;;;;;;;1.10;1.10;;;;;;;-16.13;87.99;101971.72;5092802;28;20135;-61
2021/12/07 11:54:10;;;;;;;1.15;1.13;;;;;;;-16.20;87.94;101971.16;5092729;28;20131;-63
2021/12/07 11:56:37;;;;;;;1.52;1.42;;;;;;;-16.23;87.92;101971.81;5093881;28;20046;-61
2021/12/07 11:59:05;;;;;;;;;;;;;;;-16.18;88.57;101979.59;5094454;28;20048;-60
2021/12/07 12:01:32;;;;;;;1.45;1.17;;;;;;;-16.12;87.78;101975.06;5091165;28;20349;-61
2021/12/07 12:04:01;;;;;;;1.77;1.67;;;;;;;-16.11;87.45;101974.31;5094031;28;20561;-61
2021/12/07 12:06:30;;;;;;;1.70;1.60;;;;;;;-16.10;87.21;101966.94;5093056;28;20139;-61
2021/12/07 12:08:58;;;;;;;1.42;1.33;;;;;;;-15.96;87.68;101967.06;5092294;28;20044;-61
2021/12/07 12:11:32;;;;;;;1.58;1.48;;;;;;;-15.91;87.71;101965.75;5093129;28;20127;-61
2021/12/07 12:14:12;;;;;;;1.60;1.50;;;;;;;-15.95;87.61;101962.19;5092817;28;20135;-61
2021/12/07 12:16:51;;;;;;;3.20;1.98;;;;;;;-16.13;87.95;101953.38;5075225;28;20437;-62
2021/12/07 12:19:29;;;;;;;1.30;1.20;;;;;;;-16.19;88.17;101952.94;5092075;28;20066;-63
2021/12/07 12:22:06;;;;;;;1.92;1.83;;;;;;;-16.28;87.33;101950.69;5084313;28;20043;-60
2021/12/07 12:24:44;;;;;;;1.95;1.80;;;;;;;-16.19;87.49;101942.97;5092556;28;20126;-62
2021/12/07 12:27:15;;;;;;;2.85;1.77;;;;;;;-16.26;87.32;101940.06;5092535;28;20132;-61
2021/12/07 12:29:44;;;;;;;1.70;1.58;;;;;;;-16.14;87.31;101935.06;5092063;28;20139;-61
2021/12/07 12:32:11;;;;;;;1.58;1.48;;;;;;;-16.15;87.65;101937.47;5092571;28;20131;-62
2021/12/07 12:34:47;;;;;;;2.42;2.25;;;;;;;-16.26;88.51;101931.69;5093553;28;20087;-62
2021/12/07 12:37:21;;;;;;;3.60;1.98;;;;;;;-16.12;87.34;101931.06;5091641;28;20068;-62
2021/12/07 12:39:52;;;;;;;1.23;1.20;;;;;;;-16.10;88.37;101931.19;5089650;28;20571;-62
2021/12/07 12:42:27;;;;;;;1.63;1.50;;;;;;;-16.07;87.97;101933.88;5092834;28;20071;-62
2021/12/07 12:45:07;;;;;;;1.33;1.23;;;;;;;-16.27;87.08;101940.78;5092046;28;20494;-61
2021/12/07 12:47:34;;;;;;;1.30;1.27;;;;;;;-16.10;88.17;101937.03;5091576;28;20052;-61
2021/12/07 12:50:21;;;;;;;1.25;1.25;;;;;;;-16.12;87.46;101933.56;5091714;28;20047;-61